Sunday, February 14, 2016
23:18 UTC
  |  Log In   |  Register Free
Airport Search:

Fort Smith Regional Airport
(KFSM)

FAA data valid effective Feb 4 2016 - Mar 31 2016 (unless otherwise noted).

 
 
 
 
 
 
 
 
 
 
 
 
 
 
Current Aviation Weather for KFSM

Weather Summary


The most recent METAR observation for FSM was updated at: 12:53 UTC
METAR for KFSM is not available. Closest METAR is for KJSV
KFSM  (most recent observation was updatred at 14:20 UTC)
142053Z 07010KT 10SM OVC017 03/M02 A2995 RMK AO2 SLP145 60000 T00331022 56020

KJSV  (22.2 nm SE)   (most recent observation was updated at 14:20 UTC)
142055Z AUTO 08005KT 4SM HZ OVC019 05/00 A2994 RMK AO2

KRKR  (22.6 nm NE)   (most recent observation was updated at 14:20 UTC)
142055Z AUTO 02005KT 10SM OVC018 05/00 A2993 RMK AO2 T00491005

TAF for KFSM is not available.
KFSM
141733Z 1418/1518 04008KT P6SM OVC025 TEMPO 1418/1421 4SM -DZ BKN015 FM150300 08003KT P6SM OVC050 FM150900 VRB03KT P6SM BKN250

GlobalAir.com is loading additional information.
 Current Weather at FSM
39.0 F° (3.9 C°)

Northeast winds at 6.9 mph
Pressure:
29.95 in
Humidity:
67%
Wind:
Northeast at 6.9 mph
Dew Point:
28.9 F° (-1.7 C°)
Visibility:
10.00 mi
FSM NOAA Radar




Find All Airport Services Find A Hotel Find A Rental Car Find A Golf Course Find A Restaurant $100 Hamburger



Airport Weather Forecast for KFSM

Translated METAR for KFSM (2053 UTC)
METAR:
KFSM 142053Z 07010KT 10SM OVC017 03/M02 A2995 RMK AO2 SLP145 60000 T00331022 56020
Conditions at:
KFSM (Fort Smith Rgnl, AR) observed 2053 UTC 14 February 2016
Temperature:
3°C (37.4°F)
Dewpoint:
-2°C (28.4°F) [RH = 69.7]
Pressure:
29.95 inches Hg (1014.2 mb)
pressure at sea level is 145 in Hg
Winds:
from the ENE (070 degrees) at 11.5 mph (10 knots: 5.1 m/s)
Visibility:
10 mile(s)
Ceiling:
1,700 feet AGL
Clouds:
Overcast Skies at 1,700 feet AGL
Remarks:
site is automated and HAS a precipitation sensor

Translated TAF for KFSM (Fort Smith Rgnl, AR) (1733 UTC)
TAF text:
KFSM 141733Z 1418/1518 04008KT P6SM OVC025
Forecast period:
Sunday Feb 14 2016 18:00 UTC - Monday Feb 15 2016 18:00 UTC
Forecast type:
FROM: standard forecast or significant change
Winds:
from the NE (040 degrees) at 9.2 mph (8 knots: 4.1 m/s)
Visibility:
6 or more mile(s) (9.7+ km)
Ceiling:
2,500 feet AGL
Clouds:
Overcast Skies at 2,500 feet AGL
Weather:
no significant weather observed at this time
TAF text:
1418/1421 4SM -DZ BKN015
Forecast period:
Monday Feb 15 2016 18:00 UTC - Monday Feb 15 2016 21:00 UTC
Forecast type:
FROM: standard forecast or significant change
Winds:
Visibility:
4 mile(s) (6.4 km)
Ceiling:
1,500 feet AGL
Clouds:
Broken Cloud Cover at 1,500 feet AGL
Weather:
Light Drizzle
TAF text:
FM150300 08003KT P6SM OVC050
Forecast period:
Monday Feb 15 2016 03:00 UTC - Monday Feb 15 2016 09:00 UTC
Forecast type:
FROM: standard forecast or significant change
Winds:
from the E (080 degrees) at 3.5 mph (3 knots: 1.5 m/s)
Visibility:
6 or more mile(s) (9.7+ km)
Ceiling:
5,000 feet AGL
Clouds:
Overcast Skies at 5,000 feet AGL
Weather:
no significant weather observed at this time
TAF text:
FM150900 VRB03KT P6SM BKN250
Forecast period:
Monday Feb 15 2016 09:00 UTC - Monday Feb 15 2016 18:00 UTC
Forecast type:
FROM: standard forecast or significant change
Winds:
variable wind direction at 3.5 mph (3 knots: 1.5 m/s)
Visibility:
6 or more mile(s) (9.7+ km)
Ceiling:
25,000 feet AGL
Clouds:
Broken Cloud Cover at 25,000 feet AGL
Weather:
no significant weather observed at this time
FBO's on the Field
FBO Company Facility Photos Services Transportation Aviation Fuel Prices: Prices include tax
Catering Weather Repair Courtesy Rental Type 100LL JetA JetA+ MOGAS 8087
 
TAC Air - FSM

This FBO has not yet been rated
FS:Phillips 66
Last Updated: Jan-07
Login to update fuel prices
SS:
Contact TAC Air - FSMMore FBO Information
 
Add another FBO Facility Photos Catering Weather Repair Courtesy Rental Type 100LL JetA JetA+ MOGAS 8087
Services Transportation Aviation Fuel Prices: Prices include tax


model-print
model-print
model-print
model-print